^^
Your Local Weather - Clay, NY Station Historical Data
Daily Summary for February 19, 2018 Units:  English    Metric   Both
« Previous Day
Next Day »
Daily Weekly Monthly Yearly Custom
  High: Low: Average:
Temperature: 44.5 °F 25.4 °F 37.7 °F
Dew Point: 42.5 °F 19.8 °F 31.1 °F
Humidity: 94% 61% 78%
Wind Speed: 9.0mph 0.0mph 3.8mph
Wind Gust: 15.0mph - -
Wind- - ESE
Pressure: 30.33 in 30.08 in -
Precipitation: 0.36 in    
Historical Graphs
 
 
Tabular Data for February 19, 2018
Time Temperature Dew Point Pressure Wind Wind Speed Wind Gust Humidity Rainfall Rate (Hourly) solar
00:02 28.8 °F 21.2 °F 30.33 in East 1.0 mph 2.0 mph 73% 0.00 in 0 W/m2
00:08 28.7 °F 20.8 °F 30.33 in East 1.0 mph 2.0 mph 72% 0.00 in 0 W/m2
00:14 28.5 °F 20.6 °F 30.33 in East 1.0 mph 2.0 mph 72% 0.00 in 0 W/m2
00:20 28.0 °F 20.5 °F 30.33 in East 1.0 mph 1.0 mph 73% 0.00 in 0 W/m2
00:26 27.4 °F 20.5 °F 30.32 in East 1.0 mph 1.0 mph 75% 0.00 in 0 W/m2
00:32 27.2 °F 20.3 °F 30.32 in East 1.0 mph 3.0 mph 75% 0.00 in 0 W/m2
00:38 27.2 °F 20.6 °F 30.31 in East 1.0 mph 3.0 mph 76% 0.00 in 0 W/m2
00:44 27.3 °F 20.7 °F 30.31 in East 1.0 mph 2.0 mph 76% 0.00 in 0 W/m2
00:50 27.0 °F 20.7 °F 30.31 in ENE 2.0 mph 3.0 mph 77% 0.00 in 0 W/m2
00:56 26.8 °F 20.6 °F 30.31 in ENE 2.0 mph 3.0 mph 77% 0.00 in 0 W/m2
01:02 26.9 °F 20.7 °F 30.31 in ENE 2.0 mph 3.0 mph 77% 0.00 in 0 W/m2
01:08 27.4 °F 20.8 °F 30.31 in ENE 2.0 mph 3.0 mph 76% 0.00 in 0 W/m2
01:14 27.2 °F 20.6 °F 30.30 in ENE 2.0 mph 3.0 mph 76% 0.00 in 0 W/m2
01:20 27.2 °F 20.6 °F 30.30 in ENE 2.0 mph 2.0 mph 76% 0.00 in 0 W/m2
01:26 27.1 °F 20.5 °F 30.30 in ENE 2.0 mph 2.0 mph 76% 0.00 in 0 W/m2
01:32 26.6 °F 20.1 °F 30.31 in ENE 1.0 mph 1.0 mph 76% 0.00 in 0 W/m2
01:38 26.2 °F 20.0 °F 30.31 in ENE 1.0 mph 2.0 mph 77% 0.00 in 0 W/m2
01:44 26.1 °F 20.2 °F 30.31 in NE 1.0 mph 3.0 mph 78% 0.00 in 0 W/m2
01:50 26.0 °F 20.1 °F 30.30 in ENE 2.0 mph 3.0 mph 78% 0.00 in 0 W/m2
01:56 26.7 °F 20.8 °F 30.30 in ENE 2.0 mph 3.0 mph 78% 0.00 in 0 W/m2
02:02 26.5 °F 20.3 °F 30.31 in East 2.0 mph 3.0 mph 77% 0.00 in 0 W/m2
02:08 26.3 °F 20.1 °F 30.30 in ENE 2.0 mph 3.0 mph 77% 0.00 in 0 W/m2
02:14 26.5 °F 20.3 °F 30.30 in East 3.0 mph 3.0 mph 77% 0.00 in 0 W/m2
02:20 26.3 °F 20.4 °F 30.29 in ENE 3.0 mph 4.0 mph 78% 0.00 in 0 W/m2
02:26 26.5 °F 20.3 °F 30.29 in ENE 3.0 mph 4.0 mph 77% 0.00 in 0 W/m2
02:32 25.9 °F 20.0 °F 30.29 in ENE 3.0 mph 4.0 mph 78% 0.00 in 0 W/m2
02:38 26.0 °F 20.1 °F 30.29 in East 3.0 mph 4.0 mph 78% 0.00 in 0 W/m2
02:44 26.3 °F 20.4 °F 30.28 in ENE 3.0 mph 3.0 mph 78% 0.00 in 0 W/m2
02:50 26.1 °F 20.2 °F 30.28 in ENE 3.0 mph 3.0 mph 78% 0.00 in 0 W/m2
02:56 26.5 °F 20.6 °F 30.27 in ENE 3.0 mph 6.0 mph 78% 0.00 in 0 W/m2
03:02 26.2 °F 20.3 °F 30.28 in ENE 1.0 mph 2.0 mph 78% 0.00 in 0 W/m2
03:08 26.0 °F 20.4 °F 30.28 in ENE 1.0 mph 2.0 mph 79% 0.00 in 0 W/m2
03:14 26.3 °F 20.7 °F 30.28 in ENE 1.0 mph 1.0 mph 79% 0.00 in 0 W/m2
03:20 26.1 °F 20.5 °F 30.28 in ENE 1.0 mph 1.0 mph 79% 0.00 in 0 W/m2
03:26 25.4 °F 19.8 °F 30.28 in ENE 1.0 mph 3.0 mph 79% 0.00 in 0 W/m2
03:32 25.5 °F 20.2 °F 30.27 in NNE 1.0 mph 5.0 mph 80% 0.00 in 0 W/m2
03:38 26.4 °F 21.4 °F 30.27 in ENE 2.0 mph 5.0 mph 81% 0.00 in 0 W/m2
03:44 27.2 °F 21.8 °F 30.26 in SE 3.0 mph 7.0 mph 80% 0.00 in 0 W/m2
03:50 27.6 °F 21.9 °F 30.26 in SE 2.0 mph 2.0 mph 79% 0.00 in 0 W/m2
03:56 29.2 °F 23.2 °F 30.27 in ESE 3.0 mph 10.0 mph 78% 0.00 in 0 W/m2
04:04 32.8 °F 24.4 °F 30.26 in SE 5.0 mph 8.0 mph 71% 0.00 in 0 W/m2
04:10 34.6 °F 25.1 °F 30.26 in SSE 5.0 mph 8.0 mph 68% 0.00 in 0 W/m2
04:16 35.9 °F 25.6 °F 30.26 in SSE 7.0 mph 8.0 mph 66% 0.00 in 0 W/m2
04:22 35.5 °F 24.9 °F 30.26 in SE 6.0 mph 6.0 mph 65% 0.00 in 0 W/m2
04:28 35.7 °F 25.4 °F 30.26 in ESE 5.0 mph 6.0 mph 66% 0.00 in 0 W/m2
04:34 35.9 °F 25.3 °F 30.26 in SE 5.0 mph 6.0 mph 65% 0.00 in 0 W/m2
04:40 35.7 °F 25.1 °F 30.27 in SSE 5.0 mph 5.0 mph 65% 0.00 in 0 W/m2
04:46 35.6 °F 25.0 °F 30.27 in SSW 5.0 mph 7.0 mph 65% 0.00 in 0 W/m2
04:52 36.1 °F 25.5 °F 30.26 in SSE 6.0 mph 7.0 mph 65% 0.00 in 0 W/m2
04:58 36.4 °F 25.4 °F 30.26 in SSE 7.0 mph 9.0 mph 64% 0.00 in 0 W/m2
05:04 36.4 °F 25.0 °F 30.26 in SSE 7.0 mph 13.0 mph 63% 0.00 in 0 W/m2
05:10 36.6 °F 25.2 °F 30.26 in SE 6.0 mph 9.0 mph 63% 0.00 in 0 W/m2
05:16 36.8 °F 25.0 °F 30.26 in SE 7.0 mph 11.0 mph 62% 0.00 in 0 W/m2
05:22 36.9 °F 25.5 °F 30.26 in SE 8.0 mph 13.0 mph 63% 0.00 in 0 W/m2
05:28 37.1 °F 25.3 °F 30.26 in SSE 9.0 mph 13.0 mph 62% 0.00 in 0 W/m2
05:34 37.0 °F 25.2 °F 30.26 in SSE 8.0 mph 14.0 mph 62% 0.00 in 0 W/m2
05:40 37.0 °F 25.2 °F 30.26 in South 8.0 mph 8.0 mph 62% 0.00 in 0 W/m2
05:46 36.8 °F 25.0 °F 30.26 in SSE 8.0 mph 11.0 mph 62% 0.00 in 0 W/m2
05:52 36.8 °F 25.0 °F 30.25 in SSE 8.0 mph 13.0 mph 62% 0.00 in 0 W/m2
05:58 36.8 °F 25.4 °F 30.25 in SE 8.0 mph 13.0 mph 63% 0.00 in 0 W/m2
06:04 36.8 °F 25.4 °F 30.26 in South 8.0 mph 10.0 mph 63% 0.00 in 0 W/m2
06:10 36.7 °F 25.3 °F 30.24 in SSE 8.0 mph 12.0 mph 63% 0.00 in 0 W/m2
06:16 36.6 °F 25.2 °F 30.26 in SSE 7.0 mph 12.0 mph 63% 0.00 in 0 W/m2
06:22 36.6 °F 25.2 °F 30.26 in SSE 7.0 mph 7.0 mph 63% 0.00 in 0 W/m2
06:28 36.7 °F 25.3 °F 30.25 in South 8.0 mph 9.0 mph 63% 0.00 in 0 W/m2
06:34 36.6 °F 25.6 °F 30.24 in SSE 8.0 mph 11.0 mph 64% 0.00 in 0 W/m2
06:40 36.5 °F 25.5 °F 30.26 in SSE 7.0 mph 9.0 mph 64% 0.00 in 0 W/m2
06:46 36.4 °F 25.4 °F 30.24 in ESE 6.0 mph 11.0 mph 64% 0.00 in 0 W/m2
06:52 36.4 °F 25.4 °F 30.26 in SSE 7.0 mph 8.0 mph 64% 0.00 in 5 W/m2
06:58 36.2 °F 25.6 °F 30.25 in SSE 6.0 mph 8.0 mph 65% 0.00 in 9 W/m2
07:04 36.2 °F 25.6 °F 30.25 in SE 6.0 mph 8.0 mph 65% 0.00 in 12 W/m2
07:10 36.4 °F 25.7 °F 30.26 in South 8.0 mph 13.0 mph 65% 0.00 in 16 W/m2
07:16 36.3 °F 25.7 °F 30.26 in South 7.0 mph 13.0 mph 65% 0.00 in 21 W/m2
07:22 36.5 °F 25.8 °F 30.26 in SSE 7.0 mph 8.0 mph 65% 0.00 in 30 W/m2
07:28 36.7 °F 26.0 °F 30.27 in South 8.0 mph 8.0 mph 65% 0.00 in 42 W/m2
07:34 36.8 °F 26.1 °F 30.27 in SE 7.0 mph 12.0 mph 65% 0.00 in 47 W/m2
07:40 36.9 °F 26.2 °F 30.26 in SSE 7.0 mph 7.0 mph 65% 0.00 in 47 W/m2
07:46 36.9 °F 26.2 °F 30.26 in South 6.0 mph 10.0 mph 65% 0.00 in 53 W/m2
07:52 37.1 °F 26.4 °F 30.26 in South 6.0 mph 9.0 mph 65% 0.00 in 47 W/m2
07:58 37.2 °F 26.5 °F 30.26 in SSE 7.0 mph 9.0 mph 65% 0.00 in 53 W/m2
08:04 37.4 °F 26.3 °F 30.26 in South 6.0 mph 10.0 mph 64% 0.00 in 111 W/m2
08:10 37.8 °F 26.7 °F 30.26 in South 6.0 mph 11.0 mph 64% 0.00 in 160 W/m2
08:16 38.0 °F 26.9 °F 30.25 in South 7.0 mph 13.0 mph 64% 0.00 in 139 W/m2
08:22 38.2 °F 26.7 °F 30.24 in SSE 9.0 mph 10.0 mph 63% 0.00 in 186 W/m2
08:28 38.6 °F 27.1 °F 30.25 in SSE 9.0 mph 10.0 mph 63% 0.00 in 213 W/m2
08:34 38.9 °F 27.4 °F 30.26 in SE 7.0 mph 14.0 mph 63% 0.00 in 243 W/m2
08:40 38.8 °F 27.3 °F 30.25 in South 9.0 mph 9.0 mph 63% 0.00 in 104 W/m2
08:46 38.9 °F 27.4 °F 30.25 in South 9.0 mph 9.0 mph 63% 0.00 in 193 W/m2
08:52 39.7 °F 28.1 °F 30.25 in SSE 8.0 mph 9.0 mph 63% 0.00 in 348 W/m2
08:58 40.0 °F 28.0 °F 30.24 in SSE 7.0 mph 11.0 mph 62% 0.00 in 246 W/m2
09:04 40.0 °F 28.0 °F 30.24 in South 6.0 mph 7.0 mph 62% 0.00 in 197 W/m2
09:10 40.4 °F 28.4 °F 30.24 in South 6.0 mph 9.0 mph 62% 0.00 in 260 W/m2
09:16 40.6 °F 28.6 °F 30.24 in SE 7.0 mph 10.0 mph 62% 0.00 in 257 W/m2
09:22 40.6 °F 28.6 °F 30.24 in SE 7.0 mph 9.0 mph 62% 0.00 in 229 W/m2
09:28 40.7 °F 28.7 °F 30.23 in ESE 7.0 mph 15.0 mph 62% 0.00 in 206 W/m2
09:34 40.8 °F 28.8 °F 30.23 in SE 7.0 mph 8.0 mph 62% 0.00 in 139 W/m2
09:40 40.7 °F 28.7 °F 30.23 in SSE 7.0 mph 7.0 mph 62% 0.00 in 116 W/m2
09:46 40.6 °F 29.0 °F 30.23 in SSE 7.0 mph 8.0 mph 63% 0.00 in 116 W/m2
09:52 40.6 °F 29.0 °F 30.22 in South 6.0 mph 6.0 mph 63% 0.00 in 163 W/m2
09:58 40.8 °F 29.2 °F 30.21 in ESE 6.0 mph 11.0 mph 63% 0.00 in 230 W/m2
10:04 41.2 °F 29.5 °F 30.22 in SSE 7.0 mph 7.0 mph 63% 0.00 in 246 W/m2
10:10 41.6 °F 29.5 °F 30.22 in SSE 8.0 mph 8.0 mph 62% 0.00 in 285 W/m2
10:16 42.5 °F 30.4 °F 30.22 in South 6.0 mph 8.0 mph 62% 0.00 in 315 W/m2
10:22 42.2 °F 30.1 °F 30.21 in South 6.0 mph 8.0 mph 62% 0.00 in 181 W/m2
10:28 42.0 °F 29.9 °F 30.22 in SSE 7.0 mph 8.0 mph 62% 0.00 in 207 W/m2
10:34 42.3 °F 30.2 °F 30.23 in SE 7.0 mph 7.0 mph 62% 0.00 in 281 W/m2
10:40 42.7 °F 30.6 °F 30.21 in ESE 7.0 mph 9.0 mph 62% 0.00 in 364 W/m2
10:46 43.1 °F 31.0 °F 30.20 in SSE 8.0 mph 9.0 mph 62% 0.00 in 288 W/m2
10:52 43.4 °F 30.8 °F 30.20 in South 7.0 mph 8.0 mph 61% 0.00 in 253 W/m2
10:58 43.8 °F 31.6 °F 30.20 in South 5.0 mph 8.0 mph 62% 0.00 in 332 W/m2
11:04 44.0 °F 31.4 °F 30.19 in South 5.0 mph 8.0 mph 61% 0.00 in 229 W/m2
11:10 44.0 °F 31.8 °F 30.20 in SSE 6.0 mph 13.0 mph 62% 0.00 in 243 W/m2
11:16 44.1 °F 31.9 °F 30.19 in SSE 6.0 mph 13.0 mph 62% 0.00 in 204 W/m2
11:22 44.2 °F 32.0 °F 30.19 in SSE 7.0 mph 8.0 mph 62% 0.00 in 207 W/m2
11:28 44.3 °F 32.1 °F 30.19 in SSE 6.0 mph 10.0 mph 62% 0.00 in 183 W/m2
11:34 44.4 °F 32.2 °F 30.19 in SSE 6.0 mph 11.0 mph 62% 0.00 in 141 W/m2
11:40 44.4 °F 32.2 °F 30.18 in SE 5.0 mph 5.0 mph 62% 0.00 in 91 W/m2
11:46 44.4 °F 32.6 °F 30.18 in South 4.0 mph 5.0 mph 63% 0.00 in 102 W/m2
11:52 44.3 °F 32.9 °F 30.17 in South 5.0 mph 5.0 mph 64% 0.00 in 121 W/m2
11:58 44.0 °F 33.4 °F 30.17 in SE 6.0 mph 9.0 mph 66% 0.00 in 118 W/m2
12:04 43.5 °F 33.6 °F 30.16 in SE 7.0 mph 9.0 mph 68% 0.00 in 141 W/m2
12:10 43.5 °F 34.0 °F 30.16 in SSE 7.0 mph 7.0 mph 69% 0.00 in 186 W/m2
12:16 43.6 °F 34.1 °F 30.16 in SSE 7.0 mph 10.0 mph 69% 0.00 in 190 W/m2
12:22 43.6 °F 34.1 °F 30.15 in SSW 7.0 mph 7.0 mph 69% 0.00 in 128 W/m2
12:28 43.7 °F 34.2 °F 30.14 in South 8.0 mph 14.0 mph 69% 0.00 in 176 W/m2
12:34 44.0 °F 34.5 °F 30.13 in SSE 7.0 mph 12.0 mph 69% 0.00 in 188 W/m2
12:40 44.4 °F 34.9 °F 30.13 in SSE 5.0 mph 8.0 mph 69% 0.00 in 149 W/m2
12:46 44.5 °F 35.0 °F 30.13 in SE 4.0 mph 8.0 mph 69% 0.00 in 132 W/m2
12:52 44.5 °F 35.3 °F 30.13 in SSE 3.0 mph 4.0 mph 70% 0.00 in 90 W/m2
12:58 44.5 °F 35.0 °F 30.14 in SSE 1.0 mph 4.0 mph 69% 0.00 in 46 W/m2
13:04 44.4 °F 34.5 °F 30.14 in SSE 4.0 mph 7.0 mph 68% 0.00 in 33 W/m2
13:10 44.2 °F 34.3 °F 30.14 in SSW 7.0 mph 7.0 mph 68% 0.00 in 35 W/m2
13:16 44.1 °F 34.6 °F 30.15 in SSW 6.0 mph 9.0 mph 69% 0.00 in 26 W/m2
13:22 44.0 °F 34.8 °F 30.15 in South 6.0 mph 6.0 mph 70% 0.00 in 30 W/m2
13:28 44.0 °F 35.2 °F 30.14 in SSW 6.0 mph 7.0 mph 71% 0.00 in 30 W/m2
13:34 43.8 °F 35.4 °F 30.15 in ESE 6.0 mph 7.0 mph 72% 0.00 in 28 W/m2
13:40 43.3 °F 35.2 °F 30.14 in SSE 7.0 mph 9.0 mph 73% 0.00 in 44 W/m2
13:46 42.7 °F 35.7 °F 30.14 in SSE 7.0 mph 9.0 mph 76% 0.00 in 33 W/m2
13:52 42.4 °F 36.0 °F 30.14 in SSE 5.0 mph 6.0 mph 78% 0.00 in 39 W/m2
13:58 41.9 °F 35.9 °F 30.13 in SSE 4.0 mph 6.0 mph 79% 0.00 in 35 W/m2
14:04 41.6 °F 35.9 °F 30.13 in South 5.0 mph 6.0 mph 80% 0.00 in 30 W/m2
14:10 41.4 °F 36.0 °F 30.14 in South 5.0 mph 5.0 mph 81% 0.00 in 16 W/m2
14:16 41.2 °F 35.8 °F 30.13 in South 5.0 mph 6.0 mph 81% 0.00 in 19 W/m2
14:22 41.3 °F 35.9 °F 30.14 in South 6.0 mph 6.0 mph 81% 0.00 in 32 W/m2
14:28 41.3 °F 35.9 °F 30.14 in SSE 6.0 mph 9.0 mph 81% 0.00 in 26 W/m2
14:34 41.2 °F 36.1 °F 30.13 in SSE 6.0 mph 12.0 mph 82% 0.00 in 21 W/m2
14:40 41.3 °F 36.2 °F 30.14 in SSE 5.0 mph 5.0 mph 82% 0.00 in 18 W/m2
14:46 41.3 °F 36.2 °F 30.15 in South 4.0 mph 7.0 mph 82% 0.00 in 14 W/m2
14:52 41.3 °F 36.2 °F 30.16 in SSE 5.0 mph 7.0 mph 82% 0.19 in 16 W/m2
14:58 41.0 °F 36.2 °F 30.15 in SSE 5.0 mph 7.0 mph 83% 0.08 in 19 W/m2
15:04 40.7 °F 36.2 °F 30.15 in South 4.0 mph 5.0 mph 84% 0.08 in 19 W/m2
15:10 40.5 °F 36.3 °F 30.15 in SE 4.0 mph 4.0 mph 85% 0.05 in 23 W/m2
15:16 40.4 °F 36.5 °F 30.15 in SE 3.0 mph 4.0 mph 86% 0.00 in 21 W/m2
15:22 40.3 °F 36.4 °F 30.14 in SE 2.0 mph 3.0 mph 86% 0.00 in 23 W/m2
15:28 40.3 °F 36.7 °F 30.14 in SE 2.0 mph 3.0 mph 87% 0.00 in 23 W/m2
15:34 40.2 °F 36.6 °F 30.13 in SSE 2.0 mph 3.0 mph 87% 0.00 in 32 W/m2
15:40 40.2 °F 36.6 °F 30.13 in SSE 2.0 mph 2.0 mph 87% 0.00 in 26 W/m2
15:46 40.1 °F 36.5 °F 30.13 in ESE 3.0 mph 8.0 mph 87% 0.00 in 18 W/m2
15:52 40.0 °F 36.7 °F 30.13 in SE 3.0 mph 7.0 mph 88% 0.00 in 32 W/m2
15:58 40.1 °F 36.8 °F 30.13 in SE 4.0 mph 7.0 mph 88% 0.00 in 19 W/m2
16:04 40.0 °F 36.7 °F 30.12 in SE 4.0 mph 4.0 mph 88% 0.00 in 21 W/m2
16:10 39.9 °F 36.6 °F 30.13 in SE 4.0 mph 4.0 mph 88% 0.00 in 18 W/m2
16:16 40.0 °F 37.0 °F 30.13 in SE 4.0 mph 5.0 mph 89% 0.00 in 28 W/m2
16:22 40.1 °F 37.1 °F 30.13 in SE 3.0 mph 3.0 mph 89% 0.00 in 26 W/m2
16:28 40.0 °F 37.0 °F 30.13 in SE 1.0 mph 3.0 mph 89% 0.00 in 19 W/m2
16:34 39.9 °F 36.9 °F 30.13 in Calm   2.0 mph 89% 0.00 in 16 W/m2
16:40 39.7 °F 36.7 °F 30.13 in ENE 1.0 mph 4.0 mph 89% 0.00 in 14 W/m2
16:46 39.5 °F 36.5 °F 30.13 in ENE 2.0 mph 4.0 mph 89% 0.00 in 11 W/m2
16:52 39.2 °F 36.5 °F 30.13 in ENE 1.0 mph 2.0 mph 90% 0.00 in 9 W/m2
16:58 39.1 °F 36.4 °F 30.13 in ENE 2.0 mph 4.0 mph 90% 0.00 in 5 W/m2
17:04 39.0 °F 36.3 °F 30.13 in ENE 2.0 mph 4.0 mph 90% 0.00 in 5 W/m2
17:10 38.8 °F 36.1 °F 30.13 in ENE 2.0 mph 2.0 mph 90% 0.00 in 5 W/m2
17:16 38.7 °F 36.0 °F 30.13 in ENE 1.0 mph 2.0 mph 90% 0.00 in 0 W/m2
17:22 38.7 °F 36.3 °F 30.13 in ENE 1.0 mph 1.0 mph 91% 0.00 in 0 W/m2
17:28 38.6 °F 36.2 °F 30.13 in ENE 1.0 mph 2.0 mph 91% 0.04 in 0 W/m2
17:34 38.7 °F 36.3 °F 30.13 in ENE 1.0 mph 1.0 mph 91% 0.04 in 0 W/m2
17:40 38.8 °F 36.4 °F 30.13 in Calm   1.0 mph 91% 0.05 in 0 W/m2
17:46 38.6 °F 36.2 °F 30.13 in Calm   1.0 mph 91% 0.13 in 0 W/m2
17:52 38.5 °F 36.1 °F 30.13 in Calm     91% 0.10 in 0 W/m2
17:58 38.2 °F 35.8 °F 30.13 in Calm   1.0 mph 91% 0.12 in 0 W/m2
18:04 38.4 °F 36.3 °F 30.13 in ENE 1.0 mph 2.0 mph 92% 0.07 in 0 W/m2
18:10 38.3 °F 36.2 °F 30.13 in ENE 2.0 mph 2.0 mph 92% 0.09 in 0 W/m2
18:16 38.3 °F 36.2 °F 30.13 in ENE 1.0 mph 2.0 mph 92% 0.09 in 0 W/m2
18:22 38.4 °F 36.3 °F 30.13 in ENE 1.0 mph 2.0 mph 92% 0.16 in 0 W/m2
18:28 38.3 °F 36.2 °F 30.13 in ENE 2.0 mph 3.0 mph 92% 0.17 in 0 W/m2
18:34 38.5 °F 36.4 °F 30.13 in ENE 2.0 mph 3.0 mph 92% 0.11 in 0 W/m2
18:40 38.4 °F 36.3 °F 30.13 in ENE 2.0 mph 2.0 mph 92% 0.14 in 0 W/m2
18:46 38.5 °F 36.4 °F 30.12 in ENE 2.0 mph 3.0 mph 92% 0.10 in 0 W/m2
18:52 38.7 °F 36.6 °F 30.12 in ENE 2.0 mph 2.0 mph 92% 0.09 in 0 W/m2
18:58 38.8 °F 36.7 °F 30.12 in ENE 1.0 mph 3.0 mph 92% 0.30 in 0 W/m2
19:04 38.9 °F 37.0 °F 30.12 in ENE 1.0 mph 3.0 mph 93% 0.13 in 0 W/m2
19:10 38.8 °F 36.9 °F 30.11 in ENE 1.0 mph 2.0 mph 93% 0.14 in 0 W/m2
19:16 38.9 °F 36.8 °F 30.11 in East 2.0 mph 2.0 mph 92% 0.14 in 0 W/m2
19:22 39.1 °F 37.2 °F 30.10 in ENE 3.0 mph 3.0 mph 93% 0.09 in 0 W/m2
19:28 39.1 °F 37.2 °F 30.09 in ENE 3.0 mph 4.0 mph 93% 0.05 in 0 W/m2
19:34 39.3 °F 37.4 °F 30.09 in East 3.0 mph 3.0 mph 93% 0.00 in 0 W/m2
19:40 39.5 °F 37.6 °F 30.09 in ENE 2.0 mph 3.0 mph 93% 0.00 in 0 W/m2
19:46 39.4 °F 37.5 °F 30.08 in ENE 3.0 mph 5.0 mph 93% 0.00 in 0 W/m2
19:52 39.0 °F 37.1 °F 30.08 in ENE 3.0 mph 3.0 mph 93% 0.00 in 0 W/m2
19:58 39.1 °F 37.2 °F 30.08 in ENE 2.0 mph 3.0 mph 93% 0.00 in 0 W/m2
20:04 39.2 °F 37.3 °F 30.08 in NE 2.0 mph 4.0 mph 93% 0.00 in 0 W/m2
20:10 39.5 °F 37.6 °F 30.08 in NE 2.0 mph 3.0 mph 93% 0.00 in 0 W/m2
20:16 39.4 °F 37.5 °F 30.08 in NE 3.0 mph 4.0 mph 93% 0.00 in 0 W/m2
20:22 39.6 °F 37.7 °F 30.08 in NE 3.0 mph 6.0 mph 93% 0.00 in 0 W/m2
20:28 39.5 °F 37.6 °F 30.08 in ENE 3.0 mph 6.0 mph 93% 0.00 in 0 W/m2
20:34 39.3 °F 37.4 °F 30.09 in ENE 2.0 mph 3.0 mph 93% 0.00 in 0 W/m2
20:40 39.1 °F 37.2 °F 30.09 in ENE 1.0 mph 1.0 mph 93% 0.00 in 0 W/m2
20:46 38.6 °F 36.8 °F 30.10 in Calm   1.0 mph 93% 0.00 in 0 W/m2
20:52 38.2 °F 36.4 °F 30.10 in Calm   1.0 mph 93% 0.00 in 0 W/m2
20:58 38.0 °F 36.2 °F 30.10 in ENE 1.0 mph 1.0 mph 93% 0.00 in 0 W/m2
21:04 38.0 °F 36.2 °F 30.10 in ENE 1.0 mph 1.0 mph 93% 0.00 in 0 W/m2
21:10 38.0 °F 36.2 °F 30.09 in ENE 1.0 mph 1.0 mph 93% 0.00 in 0 W/m2
21:16 37.5 °F 35.7 °F 30.09 in Calm   2.0 mph 93% 0.00 in 0 W/m2
21:22 37.7 °F 35.9 °F 30.09 in ENE 1.0 mph 1.0 mph 93% 0.00 in 0 W/m2
21:28 37.6 °F 35.8 °F 30.09 in ENE 1.0 mph 1.0 mph 93% 0.00 in 0 W/m2
21:34 37.9 °F 36.1 °F 30.09 in ENE 1.0 mph 1.0 mph 93% 0.00 in 0 W/m2
21:40 38.1 °F 36.3 °F 30.08 in ENE 1.0 mph 2.0 mph 93% 0.00 in 0 W/m2
21:46 38.8 °F 36.9 °F 30.08 in ENE 1.0 mph 2.0 mph 93% 0.00 in 0 W/m2
21:52 38.6 °F 36.8 °F 30.08 in ENE 1.0 mph 2.0 mph 93% 0.00 in 0 W/m2
21:58 38.5 °F 36.7 °F 30.08 in ENE 1.0 mph 2.0 mph 93% 0.00 in 0 W/m2
22:04 38.3 °F 36.7 °F 30.08 in ENE 1.0 mph 1.0 mph 94% 0.05 in 0 W/m2
22:10 38.5 °F 36.7 °F 30.08 in Calm     93% 0.05 in 0 W/m2
22:16 38.7 °F 36.9 °F 30.08 in Calm     93% 0.05 in 0 W/m2
22:22 39.0 °F 37.4 °F 30.09 in Calm     94% 0.00 in 0 W/m2
22:28 39.0 °F 37.4 °F 30.08 in Calm   1.0 mph 94% 0.00 in 0 W/m2
22:34 40.4 °F 38.8 °F 30.08 in ENE 1.0 mph 3.0 mph 94% 0.00 in 0 W/m2
22:40 43.5 °F 41.9 °F 30.09 in SE 2.0 mph 2.0 mph 94% 0.00 in 0 W/m2
22:46 44.1 °F 42.5 °F 30.08 in SE 2.0 mph 2.0 mph 94% 0.00 in 0 W/m2
22:52 44.1 °F 42.5 °F 30.09 in SE 1.0 mph 1.0 mph 94% 0.00 in 0 W/m2
22:58 43.6 °F 42.0 °F 30.08 in Calm   1.0 mph 94% 0.00 in 0 W/m2
23:04 43.9 °F 42.3 °F 30.08 in SE 1.0 mph 2.0 mph 94% 0.00 in 0 W/m2
23:10 43.7 °F 42.1 °F 30.08 in Calm     94% 0.00 in 0 W/m2
23:16 43.2 °F 41.6 °F 30.08 in Calm   1.0 mph 94% 0.00 in 0 W/m2
23:22 43.4 °F 41.8 °F 30.08 in Calm   1.0 mph 94% 0.05 in 0 W/m2
23:28 43.0 °F 41.4 °F 30.08 in Calm   1.0 mph 94% 0.05 in 0 W/m2
23:34 42.6 °F 41.0 °F 30.08 in Calm   1.0 mph 94% 0.04 in 0 W/m2
23:40 42.7 °F 41.1 °F 30.08 in Calm     94% 0.00 in 0 W/m2
23:46 43.5 °F 41.9 °F 30.08 in SE 1.0 mph 1.0 mph 94% 0.00 in 0 W/m2
23:52 43.8 °F 42.2 °F 30.08 in SE 1.0 mph 1.0 mph 94% 0.06 in 0 W/m2
23:58 43.2 °F 41.6 °F 30.08 in Calm   1.0 mph 94% 0.06 in 0 W/m2
Country Meadow, Clay, NY, USA
Compliments of Weather Underground - 2 mb